Rheinfelden, Switzerland
Current Conditions -  °F | °C
As of 3:00 PM on Monday 22 Dec 2014 (Local Time) from LFSB Reporting Station
Clear Clear  
Wind Chill: 45°   Ceiling: Unl
Heat Index: 48°   Visibility: 6mi
Dew Point: 37°   Wind: 8mph
Humidity: 66%   Direction: 250°WSW
Pressure: 30.39"   Gusts: NA
Location:  47.56°N, 7.79°E
Report Text: LFSB 221400Z 25007KT 230V290 CAVOK 09/03 Q1029 NOSIG
Loading
Personal Weather Stations






























Interactive Weather Map New forecast layout! Learn more

10-Day Weather Forecast

Advertisements
Track Severe Weather on mobile